Time;durP1;ratioP1;P1;durP2;ratioP2;P2;SDS_P1;SDS_P2;PMS_P1;PMS_P2;Temp;Humidity;BMP_temperature;BMP_pressure;BME280_temperature;BME280_humidity;BME280_pressure;Samples;Min_cycle;Max_cycle;Signal;HPM_P1;HPM_P2
2023/01/26 00:00:14;;;;;;;11.60;7.45;;;;;;;0.48;100.00;99451.00;4955174;28;20406;-66
2023/01/26 00:03:18;;;;;;;12.85;7.80;;;;;;;0.58;100.00;99448.25;4934668;29;20043;-66
2023/01/26 00:06:08;;;;;;;15.40;8.43;;;;;;;0.73;100.00;99449.72;4956925;28;20063;-68
2023/01/26 00:09:00;;;;;;;13.15;7.80;;;;;;;0.61;100.00;99445.63;4955046;28;20038;-66
2023/01/26 00:11:45;;;;;;;12.05;7.03;;;;;;;0.60;100.00;99441.34;4956618;28;20499;-66
2023/01/26 00:14:48;;;;;;;12.23;7.35;;;;;;;0.65;100.00;99441.28;4955443;28;20059;-66
2023/01/26 00:17:33;;;;;;;13.95;7.45;;;;;;;0.78;100.00;99441.91;4956142;29;20154;-68
2023/01/26 00:20:17;;;;;;;13.30;7.90;;;;;;;0.58;100.00;99436.22;4955553;28;20574;-67
2023/01/26 00:23:02;;;;;;;12.93;7.68;;;;;;;0.55;100.00;99428.53;4965444;28;20121;-65
2023/01/26 00:25:47;;;;;;;11.57;6.95;;;;;;;0.63;100.00;99440.44;4968590;28;20046;-66
2023/01/26 00:28:32;;;;;;;12.02;7.72;;;;;;;0.75;100.00;99432.50;4954511;28;20039;-66
2023/01/26 00:31:19;;;;;;;13.25;8.38;;;;;;;0.63;100.00;99425.81;4945831;28;20072;-66
2023/01/26 00:34:04;;;;;;;14.15;8.13;;;;;;;0.57;100.00;99434.50;4954909;28;20047;-65
2023/01/26 00:36:49;;;;;;;11.93;7.80;;;;;;;0.61;100.00;99436.16;4955695;28;20093;-67
2023/01/26 00:39:35;;;;;;;14.65;8.25;;;;;;;0.72;100.00;99432.53;4943285;29;20115;-67
2023/01/26 00:42:21;;;;;;;13.25;8.02;;;;;;;0.83;100.00;99432.38;4965845;28;20379;-66
2023/01/26 00:45:06;;;;;;;13.95;8.18;;;;;;;0.90;100.00;99433.13;4954336;28;20105;-66
2023/01/26 00:47:50;;;;;;;14.73;8.57;;;;;;;0.91;100.00;99424.47;4954381;28;20473;-67
2023/01/26 00:50:37;;;;;;;13.20;7.60;;;;;;;0.86;100.00;99429.72;4944511;28;20063;-68
2023/01/26 00:53:22;;;;;;;13.70;7.45;;;;;;;0.73;100.00;99429.09;4954618;28;20110;-67
2023/01/26 00:56:07;;;;;;;14.80;8.98;;;;;;;0.81;100.00;99423.78;4955107;28;20055;-68
2023/01/26 00:58:51;;;;;;;13.65;8.07;;;;;;;0.78;100.00;99421.28;4954450;29;20054;-67
2023/01/26 01:01:36;;;;;;;11.52;7.40;;;;;;;0.72;100.00;99415.34;4955633;29;20054;-66
2023/01/26 01:04:21;;;;;;;13.18;8.13;;;;;;;0.82;100.00;99416.03;4953610;29;20046;-65
2023/01/26 01:07:06;;;;;;;13.23;8.13;;;;;;;0.88;100.00;99411.63;4933059;29;20044;-66
2023/01/26 01:09:51;;;;;;;14.35;8.38;;;;;;;0.89;100.00;99411.63;4938712;29;20044;-67
2023/01/26 01:12:36;;;;;;;14.05;8.18;;;;;;;0.93;100.00;99402.09;4940747;28;20133;-67
2023/01/26 01:15:20;;;;;;;14.60;8.45;;;;;;;1.09;100.00;99402.66;4952456;28;20096;-67
2023/01/26 01:18:05;;;;;;;13.85;7.85;;;;;;;1.02;100.00;99401.06;4953366;28;20051;-66
2023/01/26 01:20:50;;;;;;;15.48;9.18;;;;;;;0.99;100.00;99401.97;4954629;29;20086;-66
2023/01/26 01:23:35;;;;;;;14.30;9.10;;;;;;;0.95;100.00;99401.16;4967134;28;20050;-68
2023/01/26 01:26:20;;;;;;;14.55;8.93;;;;;;;0.96;100.00;99394.28;4953780;28;20083;-66
2023/01/26 01:29:06;;;;;;;13.70;8.25;;;;;;;1.06;100.00;99394.97;4953728;28;20098;-66
2023/01/26 01:31:52;;;;;;;13.18;7.80;;;;;;;1.05;100.00;99393.25;4954388;29;20039;-65
2023/01/26 01:34:36;;;;;;;16.10;9.38;;;;;;;1.03;100.00;99387.28;4953534;28;20138;-66
2023/01/26 01:37:21;;;;;;;14.45;8.55;;;;;;;1.02;100.00;99386.44;4953847;28;20039;-66
2023/01/26 01:40:11;;;;;;;15.35;8.90;;;;;;;1.01;100.00;99383.88;4954253;28;20043;-66
2023/01/26 01:42:55;;;;;;;15.82;9.93;;;;;;;1.05;100.00;99378.63;4953668;28;20070;-66
2023/01/26 01:45:43;;;;;;;16.95;9.15;;;;;;;0.98;100.00;99377.03;4940418;29;20059;-65
2023/01/26 01:48:49;;;;;;;16.65;9.48;;;;;;;0.79;100.00;99377.38;4953314;29;20058;-66
2023/01/26 01:51:38;;;;;;;14.52;8.15;;;;;;;0.78;100.00;99369.69;4953139;28;20118;-66
2023/01/26 01:54:29;;;;;;;15.18;8.23;;;;;;;0.96;100.00;99363.31;4953378;28;20055;-65
2023/01/26 01:57:26;;;;;;;16.13;9.07;;;;;;;1.05;100.00;99355.41;4953150;29;20059;-66
2023/01/26 02:00:14;;;;;;;15.30;8.75;;;;;;;1.14;100.00;99359.53;4943830;28;20098;-65
2023/01/26 02:03:19;;;;;;;16.75;9.63;;;;;;;1.05;100.00;99355.41;4953465;28;20406;-67
2023/01/26 02:06:11;;;;;;;17.05;9.30;;;;;;;0.98;100.00;99359.81;4952978;28;20391;-67
2023/01/26 02:08:56;;;;;;;17.27;9.75;;;;;;;1.13;100.00;99351.81;4950532;28;20490;-67
2023/01/26 02:11:44;;;;;;;16.10;9.55;;;;;;;1.10;100.00;99348.41;4959009;28;20505;-66
2023/01/26 02:14:31;;;;;;;19.75;10.60;;;;;;;1.07;100.00;99348.47;4953082;28;20491;-66
2023/01/26 02:17:15;;;;;;;19.20;9.82;;;;;;;0.96;100.00;99351.25;4929940;28;20044;-65
2023/01/26 02:20:04;;;;;;;19.20;10.77;;;;;;;0.97;100.00;99342.66;4925748;28;20398;-65
2023/01/26 02:22:52;;;;;;;21.23;11.30;;;;;;;1.01;100.00;99338.28;4940219;28;20498;-68
2023/01/26 02:25:53;;;;;;;18.42;10.20;;;;;;;1.03;100.00;99333.91;4938877;28;20093;-67
2023/01/26 02:28:38;;;;;;;17.17;9.55;;;;;;;0.87;100.00;99333.38;4952169;28;20043;-66
2023/01/26 02:31:23;;;;;;;16.67;9.68;;;;;;;0.95;100.00;99325.47;4939428;29;20083;-65
2023/01/26 02:34:07;;;;;;;15.98;9.48;;;;;;;0.96;100.00;99320.28;4952398;29;20082;-65
2023/01/26 02:36:59;;;;;;;16.70;9.88;;;;;;;1.02;100.00;99313.31;4939015;29;20047;-66
2023/01/26 02:39:54;;;;;;;20.40;11.10;;;;;;;1.03;100.00;99304.69;4926221;28;20047;-65
2023/01/26 02:42:40;;;;;;;19.00;10.23;;;;;;;0.98;100.00;99299.59;4952758;28;20043;-67
2023/01/26 02:45:26;;;;;;;17.00;10.07;;;;;;;0.93;100.00;99291.97;4947874;28;20099;-67
2023/01/26 02:48:11;;;;;;;16.50;9.18;;;;;;;1.04;100.00;99285.75;4932705;28;20039;-67
2023/01/26 02:50:57;;;;;;;17.27;9.73;;;;;;;1.09;100.00;99292.50;4946306;28;20062;-68
2023/01/26 02:53:42;;;;;;;16.13;9.68;;;;;;;1.11;100.00;99282.13;4953462;28;20047;-69
2023/01/26 02:56:27;;;;;;;20.17;11.30;;;;;;;0.92;100.00;99287.69;4950421;28;20089;-66
2023/01/26 02:59:13;;;;;;;16.75;10.05;;;;;;;0.87;100.00;99284.34;4959059;28;20047;-66
2023/01/26 03:01:58;;;;;;;20.27;10.70;;;;;;;0.91;100.00;99285.16;4942877;29;20052;-67
2023/01/26 03:04:43;;;;;;;19.63;10.05;;;;;;;0.86;100.00;99288.66;4952124;28;20114;-66
2023/01/26 03:07:28;;;;;;;19.45;10.65;;;;;;;0.84;100.00;99279.25;4952314;28;20051;-67
2023/01/26 03:10:15;;;;;;;22.85;11.35;;;;;;;0.82;100.00;99281.00;4959857;28;20483;-66
2023/01/26 03:12:59;;;;;;;23.27;11.10;;;;;;;0.76;100.00;99279.41;4946828;29;20138;-66
2023/01/26 03:15:53;;;;;;;20.77;11.32;;;;;;;0.87;100.00;99279.19;4967539;28;20101;-65
2023/01/26 03:27:52;;;;;;;23.13;12.63;;;;;;;0.68;100.00;99273.56;4951661;28;20398;-65
2023/01/26 03:30:36;;;;;;;25.33;12.50;;;;;;;0.68;100.00;99266.69;4946036;28;20126;-65
2023/01/26 03:33:21;;;;;;;29.38;14.93;;;;;;;0.62;100.00;99269.34;4956185;29;20106;-65
2023/01/26 03:36:06;;;;;;;25.98;13.93;;;;;;;0.20;100.00;99264.97;4965192;28;20039;-67
2023/01/26 03:38:51;;;;;;;28.90;15.00;;;;;;;0.12;100.00;99270.28;4929638;28;20047;-65
2023/01/26 03:56:56;;;;;;;37.00;15.77;;;;;;;0.76;100.00;99256.19;4962512;28;20078;-65
2023/01/26 03:59:41;;;;;;;35.42;16.10;;;;;;;0.45;100.00;99257.66;4955026;28;20118;-66
2023/01/26 04:08:45;;;;;;;44.80;16.65;;;;;;;0.61;100.00;99245.31;4943912;29;20074;-64
2023/01/26 04:11:30;;;;;;;49.33;18.45;;;;;;;0.57;100.00;99248.81;4967874;28;20047;-66
2023/01/26 04:23:24;;;;;;;58.75;20.77;;;;;;;0.36;100.00;99234.59;4956512;28;20080;-66
2023/01/26 04:26:09;;;;;;;41.90;18.25;;;;;;;0.50;100.00;99229.19;4951208;28;20044;-68
2023/01/26 04:28:54;;;;;;;42.97;17.35;;;;;;;0.52;100.00;99227.44;4949089;29;20039;-67
2023/01/26 04:31:40;;;;;;;43.38;17.17;;;;;;;0.64;100.00;99225.50;4962320;28;20264;-66
2023/01/26 04:34:25;;;;;;;38.63;17.33;;;;;;;0.75;100.00;99215.81;4931478;29;20082;-67
2023/01/26 04:37:10;;;;;;;41.10;17.42;;;;;;;0.93;100.00;99213.72;4962403;28;20047;-66
2023/01/26 04:40:03;;;;;;;;;;;;;;;0.79;100.00;99214.00;4965884;28;20402;-67
2023/01/26 04:42:50;;;;;;;47.22;18.80;;;;;;;0.85;100.00;99211.28;4940661;28;19929;-67
2023/01/26 04:45:35;;;;;;;40.03;17.85;;;;;;;0.90;100.00;99209.47;4954929;28;20055;-66
2023/01/26 04:48:20;;;;;;;42.80;19.05;;;;;;;0.87;100.00;99209.53;4954714;28;20050;-66
2023/01/26 04:51:10;;;;;;;35.92;15.88;;;;;;;0.81;100.00;99207.09;4954400;29;20039;-65
2023/01/26 04:53:55;;;;;;;47.72;18.67;;;;;;;0.87;100.00;99201.78;4954910;29;20075;-66
2023/01/26 04:56:41;;;;;;;42.60;18.60;;;;;;;0.49;100.00;99199.13;4941385;29;20489;-66
2023/01/26 04:59:27;;;;;;;46.28;18.55;;;;;;;0.33;100.00;99209.75;4954531;28;20043;-66
2023/01/26 05:02:15;;;;;;;43.35;19.38;;;;;;;0.35;100.00;99205.41;4952712;28;20051;-66
2023/01/26 05:05:00;;;;;;;40.85;18.27;;;;;;;0.45;100.00;99194.91;4937841;28;20409;-66
2023/01/26 05:07:49;;;;;;;41.30;18.73;;;;;;;0.67;100.00;99186.75;4930331;28;20435;-65
2023/01/26 05:10:34;;;;;;;43.47;18.58;;;;;;;0.79;100.00;99186.47;4937777;28;20094;-66
2023/01/26 05:13:40;;;;;;;45.92;20.30;;;;;;;0.70;100.00;99186.69;4928079;28;20062;-68
2023/01/26 05:16:42;;;;;;;47.28;20.55;;;;;;;0.86;100.00;99188.03;4940132;28;20562;-66
2023/01/26 05:19:45;;;;;;;46.83;19.50;;;;;;;0.89;100.00;99187.13;4952615;28;20035;-66
2023/01/26 05:22:53;;;;;;;44.47;19.45;;;;;;;0.77;100.00;99193.41;4954852;28;20486;-71
2023/01/26 05:25:50;;;;;;;49.13;22.75;;;;;;;0.79;100.00;99183.03;4941213;28;20050;-66
2023/01/26 05:28:35;;;;;;;44.92;19.52;;;;;;;0.68;100.00;99185.84;4937901;28;20043;-65
2023/01/26 05:31:20;;;;;;;49.55;21.65;;;;;;;0.73;100.00;99187.44;4960434;28;20139;-66
2023/01/26 05:34:05;;;;;;;53.15;21.52;;;;;;;0.67;100.00;99187.59;4953454;28;20440;-61
2023/01/26 05:36:52;;;;;;;51.25;20.50;;;;;;;0.82;100.00;99185.56;4959462;28;20106;-67
2023/01/26 05:39:37;;;;;;;45.05;20.02;;;;;;;0.66;100.00;99187.63;4946203;29;20049;-64
2023/01/26 05:42:23;;;;;;;44.72;20.38;;;;;;;0.40;100.00;99186.41;4951233;28;20491;-66
2023/01/26 05:45:27;;;;;;;44.45;20.70;;;;;;;0.36;100.00;99186.47;4953387;28;20074;-68
2023/01/26 05:48:14;;;;;;;43.33;18.98;;;;;;;0.64;100.00;99187.66;4952826;29;20043;-64
2023/01/26 05:50:59;;;;;;;48.95;22.63;;;;;;;0.52;100.00;99181.03;4935142;28;20399;-65
2023/01/26 05:53:43;;;;;;;41.92;18.88;;;;;;;0.65;100.00;99184.22;4949401;28;20047;-64
2023/01/26 05:56:29;;;;;;;51.95;22.25;;;;;;;0.61;100.00;99195.44;4952860;29;20504;-65
2023/01/26 05:59:18;;;;;;;48.67;21.27;;;;;;;0.49;100.00;99189.66;4944060;29;20058;-67
2023/01/26 06:02:03;;;;;;;60.22;28.83;;;;;;;0.60;100.00;99192.00;4965742;28;20094;-66
2023/01/26 06:04:48;;;;;;;50.78;22.30;;;;;;;0.44;100.00;99191.47;4927535;28;20098;-65
2023/01/26 06:07:34;;;;;;;43.72;21.33;;;;;;;0.58;100.00;99182.63;4964044;28;20050;-65
2023/01/26 06:10:34;;;;;;;42.72;19.80;;;;;;;0.73;100.00;99191.78;4946297;28;20077;-63
2023/01/26 06:13:40;;;;;;;42.47;20.45;;;;;;;0.76;100.00;99189.13;4963883;28;20058;-62
2023/01/26 06:16:55;;;;;;;45.13;20.73;;;;;;;0.79;100.00;99188.19;4950867;28;20090;-64
2023/01/26 06:19:42;;;;;;;44.70;19.88;;;;;;;0.71;100.00;99190.94;4949881;28;20051;-66
2023/01/26 06:22:27;;;;;;;50.72;21.33;;;;;;;0.80;100.00;99192.50;4959381;28;20046;-62
2023/01/26 06:25:12;;;;;;;44.20;20.15;;;;;;;0.85;100.00;99193.22;4937953;28;20043;-63
2023/01/26 06:27:57;;;;;;;47.20;21.33;;;;;;;0.81;100.00;99196.75;4961678;28;20044;-63
2023/01/26 06:30:46;;;;;;;48.83;20.70;;;;;;;0.91;100.00;99195.69;4921305;29;20043;-62
2023/01/26 06:33:34;;;;;;;49.72;21.58;;;;;;;0.65;100.00;99186.78;4950108;28;20071;-64
2023/01/26 06:36:20;;;;;;;48.15;20.52;;;;;;;0.45;100.00;99190.63;4952134;28;20054;-63
2023/01/26 06:39:06;;;;;;;49.50;22.77;;;;;;;0.51;100.00;99188.81;4952339;29;20410;-63
2023/01/26 06:41:51;;;;;;;49.42;21.90;;;;;;;0.58;100.00;99182.63;4939951;28;20182;-69
2023/01/26 06:44:35;;;;;;;55.80;22.67;;;;;;;0.65;100.00;99188.50;4952556;28;20054;-65
2023/01/26 06:47:21;;;;;;;54.40;22.60;;;;;;;0.63;100.00;99182.53;4952048;28;20129;-64
2023/01/26 06:50:08;;;;;;;60.70;25.55;;;;;;;0.71;100.00;99188.38;4928532;29;20042;-65
2023/01/26 06:52:58;;;;;;;55.55;22.88;;;;;;;0.54;100.00;99191.31;4965576;28;20121;-65
2023/01/26 06:56:09;;;;;;;61.95;26.30;;;;;;;0.48;100.00;99184.53;4952691;28;20458;-64
2023/01/26 06:59:09;;;;;;;67.63;26.60;;;;;;;0.37;100.00;99179.59;4951761;29;20050;-66
2023/01/26 07:02:15;;;;;;;79.38;29.88;;;;;;;0.51;100.00;99191.38;4951316;28;20074;-65
2023/01/26 07:05:00;;;;;;;71.13;27.60;;;;;;;0.69;100.00;99187.53;4945562;29;20051;-66
2023/01/26 07:07:45;;;;;;;71.32;28.88;;;;;;;0.58;100.00;99186.06;4952887;29;20374;-68
2023/01/26 07:10:29;;;;;;;70.60;27.67;;;;;;;0.58;100.00;99177.47;4952697;28;20452;-67
2023/01/26 07:13:14;;;;;;;68.32;28.00;;;;;;;0.63;100.00;99173.06;4938379;29;20105;-66
2023/01/26 07:16:08;;;;;;;62.83;25.67;;;;;;;0.66;100.00;99174.72;4951835;28;20114;-68
2023/01/26 07:18:53;;;;;;;72.78;29.15;;;;;;;0.31;100.00;99175.41;4942465;28;20059;-67
2023/01/26 07:21:38;;;;;;;69.53;27.63;;;;;;;0.36;100.00;99172.72;4952685;28;20060;-67
2023/01/26 07:24:23;;;;;;;81.15;29.23;;;;;;;0.27;100.00;99176.38;4942268;29;20047;-67
2023/01/26 07:27:08;;;;;;;84.18;28.83;;;;;;;0.29;100.00;99174.63;4957205;28;20502;-66
2023/01/26 07:29:53;;;;;;;88.25;29.30;;;;;;;0.21;100.00;99179.06;4956994;28;20461;-64
2023/01/26 07:32:38;;;;;;;63.35;23.17;;;;;;;3.41;100.00;99172.66;4925194;28;20098;-59
2023/01/26 07:35:22;;;;;;;71.57;26.25;;;;;;;2.46;100.00;99174.59;4936228;28;20036;-60
2023/01/26 07:38:07;;;;;;;74.00;26.48;;;;;;;2.22;100.00;99174.41;4959767;28;20052;-61
2023/01/26 07:40:52;;;;;;;69.03;26.58;;;;;;;2.45;100.00;99172.91;4946518;29;20087;-58
2023/01/26 07:43:37;;;;;;;72.50;25.98;;;;;;;2.69;100.00;99167.91;4945271;29;20035;-60
2023/01/26 07:46:26;;;;;;;67.15;26.58;;;;;;;1.48;100.00;99174.59;4951571;29;20584;-61
2023/01/26 07:49:11;;;;;;;70.82;27.25;;;;;;;1.99;100.00;99176.78;4952176;29;20127;-59
2023/01/26 07:51:55;;;;;;;68.72;28.45;;;;;;;1.41;100.00;99170.47;4952007;29;20048;-61
2023/01/26 07:54:40;;;;;;;64.18;27.25;;;;;;;1.57;100.00;99176.94;4951821;29;20058;-59
2023/01/26 07:57:24;;;;;;;65.60;26.27;;;;;;;1.49;100.00;99178.88;4949691;29;20486;-61
2023/01/26 08:00:10;;;;;;;57.13;25.83;;;;;;;1.84;100.00;99176.28;4954049;28;20183;-62
2023/01/26 08:02:58;;;;;;;56.50;25.80;;;;;;;1.54;100.00;99171.88;4951771;29;20054;-60
2023/01/26 08:05:43;;;;;;;52.33;24.20;;;;;;;1.22;100.00;99176.09;4949797;29;20051;-60
2023/01/26 08:08:28;;;;;;;53.03;23.95;;;;;;;1.41;100.00;99180.78;4956312;29;20091;-61
2023/01/26 08:11:12;;;;;;;46.83;23.55;;;;;;;0.96;100.00;99177.53;4955875;29;20058;-60
2023/01/26 08:13:57;;;;;;;48.10;23.42;;;;;;;1.84;100.00;99173.72;4955870;29;20566;-59
2023/01/26 08:16:41;;;;;;;50.92;23.10;;;;;;;1.02;100.00;99169.63;4955758;29;20043;-60
2023/01/26 08:19:26;;;;;;;50.08;23.33;;;;;;;1.27;100.00;99175.97;4954991;29;20043;-59
2023/01/26 08:22:11;;;;;;;61.80;29.90;;;;;;;1.28;100.00;99169.91;4954577;29;20043;-56
2023/01/26 08:24:55;;;;;;;52.58;24.45;;;;;;;0.58;100.00;99178.31;4955742;29;20138;-62
2023/01/26 08:27:40;;;;;;;70.90;34.92;;;;;;;0.89;100.00;99171.66;4956087;29;20055;-60
2023/01/26 08:30:25;;;;;;;51.42;23.33;;;;;;;0.68;100.00;99170.38;4941325;29;20047;-61
2023/01/26 08:33:10;;;;;;;44.30;21.08;;;;;;;0.41;100.00;99172.66;4954595;29;20054;-61
2023/01/26 08:36:00;;;;;;;43.88;21.33;;;;;;;0.67;100.00;99164.38;4954653;29;20131;-56
2023/01/26 08:38:44;;;;;;;41.72;20.52;;;;;;;1.19;100.00;99164.06;4944377;29;20047;-58
2023/01/26 08:41:30;;;;;;;41.65;20.63;;;;;;;1.51;100.00;99165.91;4943163;29;20039;-60
2023/01/26 08:44:15;;;;;;;42.15;20.60;;;;;;;0.85;100.00;99162.25;4955110;29;20050;-60
2023/01/26 08:47:00;;;;;;;39.88;20.23;;;;;;;0.93;100.00;99159.53;4955959;29;20050;-60
2023/01/26 08:49:44;;;;;;;36.58;20.20;;;;;;;1.25;100.00;99154.50;4952012;29;20175;-59
2023/01/26 08:52:29;;;;;;;38.20;18.98;;;;;;;1.10;100.00;99165.16;4955470;29;20063;-58
2023/01/26 08:55:13;;;;;;;36.20;18.48;;;;;;;1.52;100.00;99159.88;4955154;29;20491;-58
2023/01/26 08:57:59;;;;;;;39.92;20.33;;;;;;;1.13;100.00;99155.66;4948896;29;20055;-56
2023/01/26 09:00:44;;;;;;;40.08;21.23;;;;;;;1.15;100.00;99156.44;4954872;29;20043;-60
2023/01/26 09:03:28;;;;;;;46.10;23.52;;;;;;;1.13;100.00;99153.06;4954488;29;20043;-58
2023/01/26 09:06:14;;;;;;;44.10;22.33;;;;;;;1.14;100.00;99159.91;4954315;29;20059;-57
2023/01/26 09:08:58;;;;;;;39.03;19.80;;;;;;;1.06;100.00;99160.09;4954907;29;20077;-58
2023/01/26 09:11:43;;;;;;;43.03;21.42;;;;;;;0.82;100.00;99163.19;4952129;28;20050;-61
2023/01/26 09:14:27;;;;;;;43.65;20.77;;;;;;;1.26;100.00;99159.63;4950578;29;20071;-60
2023/01/26 09:17:12;;;;;;;38.13;19.92;;;;;;;1.40;100.00;99166.19;4960481;28;20094;-60
2023/01/26 09:19:57;;;;;;;36.25;18.52;;;;;;;1.41;100.00;99163.56;4953089;29;20482;-60
2023/01/26 09:22:42;;;;;;;39.85;20.58;;;;;;;1.86;100.00;99168.50;4954819;29;20404;-60
2023/01/26 09:25:26;;;;;;;37.42;19.52;;;;;;;1.20;100.00;99164.94;4950404;29;20046;-62
2023/01/26 09:28:11;;;;;;;37.00;18.77;;;;;;;1.08;100.00;99156.59;4948444;28;20063;-60
2023/01/26 09:30:57;;;;;;;41.42;21.63;;;;;;;0.94;100.00;99158.66;4954679;29;20490;-56
2023/01/26 09:33:42;;;;;;;45.20;22.05;;;;;;;1.94;100.00;99166.56;4952092;29;20050;-58
2023/01/26 09:36:27;;;;;;;47.92;23.98;;;;;;;1.23;100.00;99159.69;4943923;29;20135;-60
2023/01/26 09:39:13;;;;;;;45.95;22.60;;;;;;;1.13;100.00;99163.41;4941690;28;20070;-57
2023/01/26 09:42:19;;;;;;;53.90;26.35;;;;;;;0.84;100.00;99160.56;4943794;29;20051;-58
2023/01/26 09:45:13;;;;;;;47.40;23.00;;;;;;;0.75;100.00;99148.75;4953264;29;20051;-58
2023/01/26 09:48:11;;;;;;;45.90;23.00;;;;;;;0.92;100.00;99155.25;4954073;29;20046;-57
2023/01/26 09:51:05;;;;;;;43.85;21.67;;;;;;;1.50;100.00;99151.31;4954229;29;20046;-59
2023/01/26 09:53:57;;;;;;;43.63;22.15;;;;;;;1.53;100.00;99154.69;4954353;29;20119;-60
2023/01/26 09:56:42;;;;;;;50.35;24.40;;;;;;;0.87;100.00;99147.59;4953974;29;20047;-59
2023/01/26 09:59:37;;;;;;;55.50;26.17;;;;;;;0.85;100.00;99154.53;4942747;29;20086;-59
2023/01/26 10:02:34;;;;;;;54.80;25.67;;;;;;;1.02;100.00;99143.84;4953187;29;20049;-57
2023/01/26 10:05:36;;;;;;;53.83;26.73;;;;;;;0.94;100.00;99149.19;4953798;29;20047;-59
2023/01/26 10:08:25;;;;;;;62.90;27.67;;;;;;;0.98;100.00;99148.22;4953373;29;20050;-59
2023/01/26 10:11:37;;;;;;;58.35;27.52;;;;;;;0.91;100.00;99138.94;4953784;29;20454;-57
2023/01/26 10:14:29;;;;;;;56.67;27.70;;;;;;;0.94;100.00;99138.00;4944774;29;20081;-57
2023/01/26 10:17:22;;;;;;;;;;;;;;;1.29;100.00;99138.06;4949511;29;20341;-58
2023/01/26 10:20:13;;;;;;;49.83;23.33;;;;;;;0.99;100.00;99143.91;4951392;29;19977;-61
2023/01/26 10:23:22;;;;;;;54.60;24.90;;;;;;;1.95;100.00;99134.66;4953158;28;20492;-60
2023/01/26 10:26:13;;;;;;;55.50;25.63;;;;;;;0.88;100.00;99136.44;4943166;28;20192;-58
2023/01/26 10:28:57;;;;;;;59.90;25.58;;;;;;;1.39;100.00;99133.53;4966024;28;20043;-59
2023/01/26 10:31:44;;;;;;;62.67;27.70;;;;;;;0.83;100.00;99133.91;4953458;29;20179;-59
2023/01/26 10:34:29;;;;;;;63.03;27.73;;;;;;;3.93;100.00;99125.97;4951251;29;20488;-62
2023/01/26 10:37:28;;;;;;;56.70;25.85;;;;;;;1.90;100.00;99123.59;4942861;29;20126;-59
2023/01/26 10:40:12;;;;;;;51.67;25.52;;;;;;;1.20;100.00;99124.50;4940573;29;20051;-59
2023/01/26 10:42:58;;;;;;;52.83;26.88;;;;;;;1.38;100.00;99113.72;4938675;29;20047;-63
2023/01/26 10:45:46;;;;;;;52.15;24.98;;;;;;;1.54;100.00;99117.63;4965867;28;20517;-62
2023/01/26 10:48:33;;;;;;;50.83;24.17;;;;;;;1.27;100.00;99112.28;4953354;29;20058;-60
2023/01/26 10:51:38;;;;;;;45.78;22.83;;;;;;;0.89;100.00;99103.72;4953191;29;20130;-64
2023/01/26 10:54:27;;;;;;;49.75;23.55;;;;;;;1.15;100.00;99102.25;4952959;29;20118;-59
2023/01/26 10:57:21;;;;;;;54.65;24.85;;;;;;;0.89;100.00;99094.25;4952201;29;20134;-57
2023/01/26 11:00:22;;;;;;;46.35;22.55;;;;;;;0.95;100.00;99088.94;4952487;29;20127;-60
2023/01/26 11:03:12;;;;;;;49.22;23.00;;;;;;;1.86;100.00;99091.81;4945503;29;20051;-61
2023/01/26 11:06:06;;;;;;;50.75;23.38;;;;;;;0.77;100.00;99090.22;4942371;29;20688;-61
2023/01/26 11:08:50;;;;;;;58.67;25.75;;;;;;;0.58;100.00;99082.91;4950723;28;20051;-57
2023/01/26 11:11:35;;;;;;;52.70;23.25;;;;;;;0.47;100.00;99079.72;4965480;28;20039;-59
2023/01/26 11:14:19;;;;;;;52.78;25.17;;;;;;;1.01;100.00;99071.63;4953039;29;20122;-60
2023/01/26 11:17:21;;;;;;;52.08;23.23;;;;;;;1.04;100.00;99068.97;4941809;28;20047;-60
2023/01/26 11:20:06;;;;;;;;;;;;;;;1.14;100.00;99074.75;4943034;29;20462;-60
2023/01/26 11:23:19;;;;;;;52.80;24.58;;;;;;;0.91;100.00;99065.81;4958019;28;19926;-59
2023/01/26 11:26:09;;;;;;;;;;;;;;;1.32;100.00;99066.53;4950714;29;20129;-58
2023/01/26 11:29:12;;;;;;;53.17;23.58;;;;;;;1.25;100.00;99052.09;4950326;29;20301;-59
2023/01/26 11:32:28;;;;;;;52.30;23.30;;;;;;;1.44;100.00;99054.19;4950165;28;20051;-59
2023/01/26 11:35:25;;;;;;;49.30;22.95;;;;;;;1.30;100.00;99051.97;4949810;28;20067;-60
2023/01/26 11:38:20;;;;;;;49.67;23.83;;;;;;;1.13;100.00;99057.56;4955543;28;20071;-59
2023/01/26 11:41:20;;;;;;;51.63;22.65;;;;;;;0.78;100.00;99045.50;4960003;28;20047;-60
2023/01/26 11:44:13;;;;;;;49.30;24.27;;;;;;;6.38;100.00;99031.31;4956339;28;20062;-58
2023/01/26 11:47:07;;;;;;;46.65;24.55;;;;;;;3.87;100.00;99034.63;4945426;28;20043;-59
2023/01/26 11:50:20;;;;;;;48.53;24.02;;;;;;;3.03;100.00;99044.38;4949044;28;20048;-59
2023/01/26 11:53:04;;;;;;;47.10;22.85;;;;;;;2.19;100.00;99032.28;4947227;28;20114;-60
2023/01/26 11:56:14;;;;;;;44.83;21.98;;;;;;;2.06;100.00;99026.66;4951159;29;20043;-60
2023/01/26 11:59:13;;;;;;;43.22;21.15;;;;;;;1.93;100.00;99022.72;4955104;29;20422;-60
2023/01/26 12:02:19;;;;;;;41.55;20.23;;;;;;;1.95;100.00;99013.19;4945588;28;20594;-59
2023/01/26 12:05:16;;;;;;;42.80;21.02;;;;;;;1.87;100.00;99010.84;4942802;29;20051;-61
2023/01/26 12:08:14;;;;;;;45.38;21.02;;;;;;;2.01;100.00;99009.59;4942213;29;20052;-61
2023/01/26 12:11:22;;;;;;;46.28;21.98;;;;;;;1.63;100.00;99000.31;4952452;29;20508;-57
2023/01/26 12:14:15;;;;;;;42.78;20.95;;;;;;;2.03;100.00;99005.19;4954443;28;20078;-59
2023/01/26 12:17:15;;;;;;;47.58;21.83;;;;;;;1.87;100.00;98999.63;4951909;29;20051;-58
2023/01/26 12:20:18;;;;;;;43.45;21.25;;;;;;;1.82;100.00;98989.44;4952837;29;20039;-58
2023/01/26 12:23:28;;;;;;;44.08;21.23;;;;;;;1.38;100.00;98990.66;4955824;28;20043;-60
2023/01/26 12:26:17;;;;;;;43.25;20.85;;;;;;;1.30;100.00;98990.88;4953418;29;20050;-60
2023/01/26 12:29:18;;;;;;;45.35;21.15;;;;;;;2.44;100.00;98989.31;4952132;29;20561;-52
2023/01/26 12:32:12;;;;;;;42.70;19.75;;;;;;;4.41;100.00;98985.03;4938457;29;20047;-60
2023/01/26 12:34:57;;;;;;;41.40;20.27;;;;;;;3.49;100.00;98981.56;4955900;28;20178;-60
2023/01/26 12:38:04;;;;;;;41.33;20.63;;;;;;;3.23;100.00;98985.06;4952012;29;20047;-61
2023/01/26 12:41:04;;;;;;;39.85;19.50;;;;;;;2.70;100.00;98990.22;4952328;29;20051;-61
2023/01/26 12:44:16;;;;;;;40.22;18.75;;;;;;;2.47;100.00;98989.22;4945273;29;20043;-62
2023/01/26 12:47:32;;;;;;;39.80;18.95;;;;;;;2.37;100.00;98988.66;4941691;28;20529;-59
2023/01/26 12:50:34;;;;;;;35.65;17.95;;;;;;;2.15;100.00;98976.41;4946282;29;20055;-59
2023/01/26 12:53:29;;;;;;;37.45;19.40;;;;;;;1.94;100.00;98976.16;4944915;29;20043;-62
2023/01/26 12:56:23;;;;;;;40.22;18.70;;;;;;;2.20;100.00;98977.09;4941124;29;20092;-60
2023/01/26 12:59:19;;;;;;;40.67;18.52;;;;;;;2.61;100.00;98977.59;4952759;29;20047;-58
2023/01/26 13:02:15;;;;;;;40.83;18.55;;;;;;;2.61;100.00;98975.88;4951545;29;20047;-63
2023/01/26 13:05:02;;;;;;;36.20;17.58;;;;;;;2.45;100.00;98978.94;4952560;29;20134;-59
2023/01/26 13:07:46;;;;;;;42.80;18.55;;;;;;;2.20;100.00;98977.09;4952526;29;20073;-57
2023/01/26 13:10:47;;;;;;;34.42;17.30;;;;;;;1.80;100.00;98976.56;4953060;29;20047;-58
2023/01/26 13:13:31;;;;;;;37.33;17.55;;;;;;;2.33;100.00;98977.56;4952100;29;20138;-59
2023/01/26 13:16:16;;;;;;;36.05;18.88;;;;;;;2.52;100.00;98978.72;4952495;28;20049;-58
2023/01/26 13:19:02;;;;;;;38.90;18.63;;;;;;;2.83;100.00;98978.59;4952885;29;20130;-61
2023/01/26 13:21:46;;;;;;;35.10;18.13;;;;;;;2.81;100.00;98971.75;4937607;29;20065;-59
2023/01/26 13:24:34;;;;;;;40.15;20.52;;;;;;;2.64;100.00;98982.69;4946969;29;20117;-57
2023/01/26 13:27:31;;;;;;;38.65;18.60;;;;;;;2.61;100.00;98977.59;4952878;29;20116;-58
2023/01/26 13:30:28;;;;;;;38.70;18.73;;;;;;;2.37;100.00;98980.91;4953005;29;20461;-60
2023/01/26 13:33:22;;;;;;;39.42;19.20;;;;;;;1.96;100.00;98976.97;4940751;28;20047;-60
2023/01/26 13:36:15;;;;;;;37.30;18.45;;;;;;;1.84;100.00;98983.31;4941678;28;20103;-60
2023/01/26 13:39:11;;;;;;;37.90;18.35;;;;;;;2.11;100.00;98981.69;4940270;29;20039;-59
2023/01/26 13:41:56;;;;;;;39.28;18.90;;;;;;;2.48;100.00;98982.31;4938181;29;20094;-59